Terminal Aerodrome Forecast
Issued by NWS

Home | Current Version | Previous Version | Text Only | Print | Product List | Glossary Off
Versions: 1 2 3 4 5 6 7 8 9 10 11 12 13 14

000
FTUS42 KMHX 161741
TAFISO
TAF
KISO 161741Z 1618/1718 06006KT P6SM SCT035
     FM162200 05005KT P6SM SCT090
     FM170900 00000KT 2SM BR BKN005
     FM171300 02005KT P6SM BKN015
     FM171400 02006KT P6SM BKN025
      AMD LTD TO CLD VIS AND WIND=

USA.gov is the U.S. government's official web portal to all federal, state and local government web resources and services.